Terminal Aerodrome Forecast
Issued by NWS Missoula, MT

Home | Current Version | Previous Version | Text Only | Print | Product List | Glossary On
Versions: 1 2 3 4 5 6 7 8 9 10 11 12 13 14 15 16 17 18 19 20 21 22 23 24
000
FTUS45 KMSO 210551 CCA
TAFMSO
TAF COR
KMSO 210551Z 2106/2206 00000KT 1SM BR SCT002 OVC060
      TEMPO 2106/2108 1/2SM FG OVC002
     FM210800 00000KT 1/2SM FG OVC003
     FM211500 00000KT 2SM BR OVC005
     FM211700 13005KT 5SM BR BKN009 OVC030
     FM220000 22005KT 6SM BCFG VCSH SCT015 OVC035=

USA.gov is the U.S. government's official web portal to all federal, state and local government web resources and services.